Time;durP1;ratioP1;P1;durP2;ratioP2;P2;SDS_P1;SDS_P2;PMS_P1;PMS_P2;Temp;Humidity;BMP_temperature;BMP_pressure;BME280_temperature;BME280_humidity;BME280_pressure;Samples;Min_cycle;Max_cycle;Signal;HPM_P1;HPM_P2
2021/12/24 00:00:46;;;;;;;45.72;31.60;;;;;;;6.76;100.00;99609.31;5046496;28;20066;-58
2021/12/24 00:03:12;;;;;;;43.45;34.30;;;;;;;6.74;100.00;99604.16;5047684;28;20139;-59
2021/12/24 00:05:37;;;;;;;62.58;37.15;;;;;;;6.76;100.00;99602.31;5046645;28;20404;-59
2021/12/24 00:08:04;;;;;;;46.28;34.88;;;;;;;6.78;100.00;99600.50;5049447;28;20127;-59
2021/12/24 00:10:31;;;;;;;50.58;34.80;;;;;;;6.79;100.00;99596.97;5051008;28;20970;-59
2021/12/24 00:13:01;;;;;;;42.10;33.95;;;;;;;6.76;100.00;99591.88;5050275;28;20919;-59
2021/12/24 00:18:23;;;;;;;58.53;36.83;;;;;;;6.80;100.00;99592.56;5049428;28;20043;-59
2021/12/24 00:37:13;;;;;;;49.10;35.53;;;;;;;6.87;100.00;99584.38;5048490;28;20051;-58
2021/12/24 00:39:48;;;;;;;49.22;35.42;;;;;;;6.91;100.00;99575.47;5048733;28;20879;-58
2021/12/24 00:42:14;;;;;;;46.40;36.67;;;;;;;6.92;100.00;99577.19;5048987;28;20056;-59
2021/12/24 00:44:40;;;;;;;45.65;33.83;;;;;;;6.92;100.00;99576.34;5048534;28;20020;-58
2021/12/24 00:47:05;;;;;;;52.00;35.35;;;;;;;6.97;100.00;99569.97;5049941;28;20084;-59
2021/12/24 00:49:30;;;;;;;52.60;33.42;;;;;;;7.01;100.00;99574.13;5048323;28;20988;-59
2021/12/24 00:52:07;;;;;;;48.42;35.80;;;;;;;7.01;100.00;99568.91;5049632;28;20854;-59
2021/12/24 00:57:20;;;;;;;46.53;34.80;;;;;;;6.81;100.00;99519.41;5048905;28;20137;-59
2021/12/24 00:59:46;;;;;;;43.85;32.05;;;;;;;7.06;100.00;99553.81;5049398;28;20981;-58
2021/12/24 01:02:11;;;;;;;48.00;36.00;;;;;;;7.08;100.00;99557.22;5049512;28;20028;-59
2021/12/24 01:04:37;;;;;;;48.47;34.42;;;;;;;7.09;100.00;99551.09;5049148;28;20024;-58
2021/12/24 01:07:02;;;;;;;40.25;31.48;;;;;;;7.10;100.00;99551.91;5050435;28;20052;-59
2021/12/24 01:09:28;;;;;;;44.28;31.73;;;;;;;6.80;100.00;99499.44;5049509;28;20028;-59
2021/12/24 01:11:53;;;;;;;58.53;32.40;;;;;;;7.17;100.00;99556.75;5049384;28;20028;-59
2021/12/24 01:14:21;;;;;;;53.28;31.63;;;;;;;7.19;100.00;99560.16;5049131;28;20902;-58
2021/12/24 01:17:09;;;;;;;54.30;32.05;;;;;;;7.20;100.00;99572.28;5047331;28;20032;-59
2021/12/24 01:19:32;;;;;;;45.85;32.33;;;;;;;7.20;100.00;99561.81;5048031;28;20878;-58
2021/12/24 01:25:01;;;;;;;41.85;28.92;;;;;;;7.26;100.00;99565.06;5048922;28;20111;-58
2021/12/24 01:38:21;;;;;;;41.53;29.02;;;;;;;7.01;100.00;99542.78;5049051;28;20194;-59
2021/12/24 01:41:06;;;;;;;38.90;26.88;;;;;;;7.14;100.00;99574.34;5049170;28;20470;-58
2021/12/24 01:43:31;;;;;;;34.42;25.98;;;;;;;7.13;100.00;99562.22;5032664;28;20035;-58
2021/12/24 01:45:58;;;;;;;36.80;28.83;;;;;;;7.13;100.00;99570.06;5050360;28;20028;-59
2021/12/24 01:48:24;;;;;;;39.90;27.85;;;;;;;7.11;100.00;99572.75;5049678;28;20028;-58
2021/12/24 01:50:50;;;;;;;33.25;26.33;;;;;;;7.08;100.00;99567.69;5050146;28;20028;-59
2021/12/24 01:53:19;;;;;;;42.42;27.98;;;;;;;7.10;100.00;99575.41;5049345;28;20858;-59
2021/12/24 01:55:45;;;;;;;34.03;26.10;;;;;;;7.10;100.00;99572.81;5048446;28;20086;-58
2021/12/24 01:58:11;;;;;;;37.88;26.10;;;;;;;7.08;100.00;99564.22;5048705;28;20028;-58
2021/12/24 02:00:47;;;;;;;43.55;28.88;;;;;;;7.07;100.00;99560.75;5046511;28;20040;-59
2021/12/24 02:03:13;;;;;;;38.88;28.05;;;;;;;7.08;100.00;99567.69;5046885;28;20032;-59
2021/12/24 02:05:40;;;;;;;44.83;27.13;;;;;;;7.08;100.00;99559.84;5048543;28;20131;-58
2021/12/24 02:08:06;;;;;;;38.97;26.73;;;;;;;7.08;100.00;99570.28;5048409;28;20020;-59
2021/12/24 02:10:32;;;;;;;36.90;27.40;;;;;;;7.06;100.00;99564.28;5048463;28;20159;-58
2021/12/24 02:12:57;;;;;;;40.22;26.10;;;;;;;7.03;100.00;99553.97;5047291;28;20885;-58
2021/12/24 02:28:47;;;;;;;61.90;26.48;;;;;;;6.97;100.00;99527.31;5047729;28;20925;-57
2021/12/24 02:31:22;;;;;;;49.40;28.25;;;;;;;6.98;100.00;99522.03;5046745;28;20064;-57
2021/12/24 02:33:48;;;;;;;46.58;27.08;;;;;;;6.62;100.00;99463.81;5046846;28;20059;-57
2021/12/24 02:36:14;;;;;;;37.78;27.75;;;;;;;7.12;100.00;99543.09;5046881;28;20854;-59
2021/12/24 02:38:41;;;;;;;39.70;27.92;;;;;;;7.12;100.00;99531.81;5046737;28;20939;-57
2021/12/24 02:41:08;;;;;;;41.22;29.75;;;;;;;7.10;100.00;99534.47;5047880;28;20036;-59
2021/12/24 02:43:34;;;;;;;37.85;27.42;;;;;;;7.12;100.00;99535.25;5029999;28;20028;-58
2021/12/24 02:46:08;;;;;;;42.38;28.35;;;;;;;7.11;100.00;99528.34;5046678;28;20050;-59
2021/12/24 02:53:58;;;;;;;51.80;29.42;;;;;;;7.05;100.00;99518.19;5046635;28;20900;-57
2021/12/24 02:56:30;;;;;;;41.53;26.38;;;;;;;7.13;100.00;99528.28;5046309;28;20036;-57
2021/12/24 02:58:58;;;;;;;37.80;27.52;;;;;;;7.13;100.00;99521.25;5047065;28;20039;-57
2021/12/24 03:01:27;;;;;;;42.03;27.50;;;;;;;7.14;100.00;99524.72;5047682;28;20125;-58
2021/12/24 03:03:53;;;;;;;40.65;27.50;;;;;;;7.12;100.00;99522.19;5045770;28;20027;-58
2021/12/24 03:06:21;;;;;;;45.67;27.27;;;;;;;7.16;100.00;99523.72;5047372;28;20024;-58
2021/12/24 03:08:47;;;;;;;39.00;26.63;;;;;;;7.17;100.00;99520.19;5047462;28;20021;-58
2021/12/24 03:11:12;;;;;;;43.90;27.65;;;;;;;6.85;100.00;99471.34;5047540;28;20103;-58
2021/12/24 03:13:39;;;;;;;39.70;26.27;;;;;;;7.22;100.00;99519.97;5045739;28;20147;-58
2021/12/24 03:16:05;;;;;;;44.28;24.67;;;;;;;7.22;100.00;99509.50;5045463;28;20032;-58
2021/12/24 03:18:33;;;;;;;39.35;25.13;;;;;;;7.04;100.00;99482.56;5028178;28;20193;-58
2021/12/24 03:23:37;;;;;;;38.50;24.95;;;;;;;7.27;100.00;99519.72;5045796;28;20064;-58
2021/12/24 03:26:04;;;;;;;43.40;24.23;;;;;;;7.29;100.00;99518.72;5045410;28;20878;-58
2021/12/24 03:28:29;;;;;;;41.35;23.48;;;;;;;7.33;100.00;99520.28;5046766;28;20028;-57
2021/12/24 03:30:55;;;;;;;41.50;22.73;;;;;;;7.27;100.00;99504.88;5047895;28;20028;-58
2021/12/24 03:33:20;;;;;;;33.22;23.23;;;;;;;7.38;100.00;99520.03;5046748;28;20028;-58
2021/12/24 03:35:45;;;;;;;37.42;24.10;;;;;;;7.37;100.00;99515.75;5045312;28;20067;-58
2021/12/24 03:38:11;;;;;;;34.95;21.63;;;;;;;7.38;100.00;99513.03;5045473;28;20032;-58
2021/12/24 03:40:36;;;;;;;29.30;22.27;;;;;;;7.42;100.00;99508.50;5046127;28;20771;-58
2021/12/24 03:43:02;;;;;;;41.35;23.70;;;;;;;7.44;100.00;99520.53;5046565;28;20869;-58
2021/12/24 03:45:40;;;;;;;30.80;21.70;;;;;;;7.46;100.00;99520.47;5050753;28;20888;-58
2021/12/24 03:48:15;;;;;;;32.08;21.92;;;;;;;7.47;100.00;99523.00;5055088;28;20035;-58
2021/12/24 03:50:54;;;;;;;37.78;20.75;;;;;;;7.48;100.00;99514.25;5049299;28;20040;-58
2021/12/24 03:56:03;;;;;;;29.77;20.30;;;;;;;7.54;100.00;99513.91;5050851;28;20784;-58
2021/12/24 03:58:29;;;;;;;31.08;19.95;;;;;;;7.55;100.00;99517.38;5049022;28;20028;-58
2021/12/24 04:00:55;;;;;;;32.60;20.70;;;;;;;7.54;100.00;99507.84;5051469;28;20127;-58
2021/12/24 04:03:20;;;;;;;31.45;20.58;;;;;;;7.53;100.00;99504.41;5049445;28;20028;-58
2021/12/24 04:05:46;;;;;;;35.05;20.15;;;;;;;7.56;100.00;99506.00;5049139;28;20884;-58
2021/12/24 04:08:12;;;;;;;28.80;20.00;;;;;;;7.55;100.00;99512.16;5048888;28;20089;-58
2021/12/24 04:10:40;;;;;;;29.15;21.23;;;;;;;7.55;100.00;99509.53;5050499;28;20036;-58
2021/12/24 04:13:11;;;;;;;27.33;20.85;;;;;;;7.59;100.00;99508.47;5048851;28;20035;-58
2021/12/24 04:15:37;;;;;;;29.25;20.08;;;;;;;7.60;100.00;99502.31;5049041;28;20543;-58
2021/12/24 04:18:13;;;;;;;28.90;18.23;;;;;;;7.35;100.00;99470.53;5050213;28;20028;-58
2021/12/24 04:26:06;;;;;;;33.17;19.65;;;;;;;7.61;100.00;99514.44;5049382;28;20982;-58
2021/12/24 04:28:32;;;;;;;35.28;19.77;;;;;;;7.61;100.00;99507.44;5050204;28;20093;-58
2021/12/24 04:30:57;;;;;;;27.75;20.05;;;;;;;7.63;100.00;99517.84;5050657;28;20040;-58
2021/12/24 04:33:30;;;;;;;32.72;18.30;;;;;;;7.62;100.00;99505.69;5049833;28;20221;-58
2021/12/24 04:35:59;;;;;;;29.73;19.55;;;;;;;7.59;100.00;99501.47;5048319;28;20193;-58
2021/12/24 04:38:37;;;;;;;38.47;18.92;;;;;;;7.65;100.00;99505.53;5048657;28;20347;-58
2021/12/24 04:52:17;;;;;;;27.45;19.35;;;;;;;7.64;100.00;99491.59;5048316;28;20864;-57
2021/12/24 05:03:00;;;;;;;26.63;18.33;;;;;;;7.51;100.00;99487.09;5048820;28;20051;-58
2021/12/24 05:05:50;;;;;;;30.13;19.45;;;;;;;7.67;100.00;99514.16;5050065;28;20045;-58
2021/12/24 05:10:40;;;;;;;34.25;19.20;;;;;;;7.68;100.00;99526.28;5048183;28;20039;-58
2021/12/24 05:13:10;;;;;;;33.97;19.95;;;;;;;7.66;100.00;99530.75;5049675;28;20035;-58
2021/12/24 05:15:37;;;;;;;29.27;19.40;;;;;;;7.64;100.00;99519.50;5047867;28;20078;-58
2021/12/24 05:23:47;;;;;;;27.70;17.90;;;;;;;7.62;100.00;99532.69;5049035;28;20108;-58
2021/12/24 05:26:14;;;;;;;39.95;20.65;;;;;;;7.60;100.00;99529.28;5048195;28;20143;-58
2021/12/24 05:28:39;;;;;;;30.60;19.95;;;;;;;7.56;100.00;99525.16;5047567;28;20131;-58
2021/12/24 05:31:05;;;;;;;25.13;19.40;;;;;;;7.56;100.00;99525.16;5031813;28;20272;-58
2021/12/24 05:33:31;;;;;;;38.45;21.55;;;;;;;7.56;100.00;99526.94;5048125;28;20877;-58
2021/12/24 05:35:56;;;;;;;36.25;21.10;;;;;;;7.42;100.00;99513.72;5048640;28;20036;-58
2021/12/24 05:38:21;;;;;;;40.90;20.75;;;;;;;7.52;100.00;99531.47;5047494;28;20093;-58
2021/12/24 05:40:47;;;;;;;28.80;19.63;;;;;;;7.51;100.00;99539.38;5045922;28;20092;-58
2021/12/24 05:43:12;;;;;;;34.40;20.63;;;;;;;7.48;100.00;99535.16;5048895;28;20032;-58
2021/12/24 05:45:38;;;;;;;41.00;22.98;;;;;;;7.47;100.00;99535.25;5047861;28;20028;-58
2021/12/24 05:48:04;;;;;;;41.97;21.75;;;;;;;7.47;100.00;99545.69;5048688;28;20020;-58
2021/12/24 05:50:29;;;;;;;34.90;23.02;;;;;;;7.45;100.00;99547.53;5049395;28;20146;-58
2021/12/24 05:52:55;;;;;;;32.83;22.77;;;;;;;7.45;100.00;99535.31;5048325;28;20027;-58
2021/12/24 05:55:20;;;;;;;47.65;24.80;;;;;;;7.45;100.00;99542.31;5048746;28;20799;-58
2021/12/24 05:57:45;;;;;;;33.35;22.15;;;;;;;7.44;100.00;99544.06;5030605;28;20900;-58
2021/12/24 06:00:12;;;;;;;41.05;24.00;;;;;;;7.43;100.00;99539.78;5047212;28;20024;-58
2021/12/24 06:02:37;;;;;;;34.28;22.67;;;;;;;7.43;100.00;99542.41;5047143;28;20028;-58
2021/12/24 06:05:03;;;;;;;38.22;23.98;;;;;;;7.39;100.00;99548.69;5046127;28;20785;-58
2021/12/24 06:07:29;;;;;;;38.42;25.00;;;;;;;7.36;100.00;99546.25;5046728;28;20028;-58
2021/12/24 06:09:54;;;;;;;43.95;24.65;;;;;;;7.37;100.00;99545.31;5048815;28;20039;-58
2021/12/24 06:12:20;;;;;;;43.17;25.35;;;;;;;7.37;100.00;99544.47;5046737;28;20081;-58
2021/12/24 06:14:52;;;;;;;41.08;25.63;;;;;;;7.34;100.00;99536.78;5047584;28;20021;-58
2021/12/24 06:17:18;;;;;;;38.75;23.38;;;;;;;7.35;100.00;99538.47;5048532;28;20066;-58
2021/12/24 06:19:43;;;;;;;37.60;25.08;;;;;;;7.24;100.00;99527.72;5047240;28;20795;-58
2021/12/24 06:22:09;;;;;;;38.80;25.50;;;;;;;7.36;100.00;99534.94;5047402;28;20945;-58
2021/12/24 06:24:35;;;;;;;43.20;25.48;;;;;;;7.36;100.00;99540.16;5028627;28;20198;-58
2021/12/24 06:27:00;;;;;;;39.83;26.67;;;;;;;7.33;100.00;99532.50;5046916;28;20059;-58
2021/12/24 06:29:25;;;;;;;45.40;26.40;;;;;;;7.35;100.00;99525.41;5047325;28;20032;-58
2021/12/24 06:31:51;;;;;;;37.13;26.90;;;;;;;7.34;100.00;99527.16;5047831;28;20031;-58
2021/12/24 06:34:17;;;;;;;56.35;27.65;;;;;;;7.34;100.00;99523.72;5047462;28;20058;-58
2021/12/24 06:36:44;;;;;;;48.47;27.48;;;;;;;7.19;100.00;99507.06;5048795;28;20089;-58
2021/12/24 06:39:11;;;;;;;39.85;26.52;;;;;;;6.98;100.00;99475.03;5048090;28;20035;-58
2021/12/24 06:41:36;;;;;;;43.03;28.83;;;;;;;7.35;100.00;99533.25;5049626;28;20027;-58
2021/12/24 06:44:04;;;;;;;44.90;27.58;;;;;;;7.37;100.00;99540.06;5048764;28;20016;-58
2021/12/24 06:46:29;;;;;;;49.70;28.33;;;;;;;7.37;100.00;99539.25;5046670;28;20089;-58
2021/12/24 06:48:56;;;;;;;50.70;29.60;;;;;;;7.38;100.00;99540.94;5047684;28;20029;-58
2021/12/24 06:51:26;;;;;;;52.67;28.45;;;;;;;7.09;100.00;99493.63;5047106;28;20082;-58
2021/12/24 06:53:51;;;;;;;45.80;27.15;;;;;;;7.06;100.00;99479.88;5047437;28;20899;-57
2021/12/24 06:56:17;;;;;;;57.50;28.90;;;;;;;7.43;100.00;99546.78;5047459;28;20020;-57
2021/12/24 06:58:42;;;;;;;42.35;26.25;;;;;;;7.40;100.00;99547.75;5049419;28;20113;-57
2021/12/24 07:01:08;;;;;;;37.03;24.90;;;;;;;7.42;100.00;99550.31;5063055;28;20396;-58
2021/12/24 07:03:33;;;;;;;46.75;27.42;;;;;;;7.42;100.00;99550.31;5064164;28;20143;-57
2021/12/24 07:05:59;;;;;;;43.25;27.27;;;;;;;7.43;100.00;99554.63;5066426;28;20024;-57
2021/12/24 07:08:25;;;;;;;52.50;25.17;;;;;;;7.43;100.00;99562.47;5067796;28;20942;-58
2021/12/24 07:10:51;;;;;;;42.90;24.70;;;;;;;7.43;100.00;99557.22;5065778;28;20077;-57
2021/12/24 07:13:16;;;;;;;33.55;22.95;;;;;;;7.43;100.00;99552.00;5066325;28;20138;-57
2021/12/24 07:15:42;;;;;;;25.55;20.80;;;;;;;7.44;100.00;99551.06;5067526;28;20031;-57
2021/12/24 07:18:07;;;;;;;44.28;22.15;;;;;;;7.44;100.00;99558.91;5065212;28;20035;-57
2021/12/24 07:20:32;;;;;;;45.78;24.48;;;;;;;7.44;100.00;99553.66;5067488;28;20040;-57
2021/12/24 07:22:58;;;;;;;34.55;22.00;;;;;;;7.41;100.00;99548.59;5066815;28;20059;-57
2021/12/24 07:25:23;;;;;;;29.63;20.90;;;;;;;7.20;100.00;99520.03;5066736;28;20030;-57
2021/12/24 07:27:48;;;;;;;36.70;20.60;;;;;;;7.44;100.00;99553.66;5066236;28;20876;-57
2021/12/24 07:30:14;;;;;;;34.55;21.98;;;;;;;7.44;100.00;99551.06;5066053;28;20023;-57
2021/12/24 07:32:40;;;;;;;36.90;23.60;;;;;;;7.44;100.00;99548.44;5066711;28;20035;-57
2021/12/24 07:35:07;;;;;;;33.05;20.80;;;;;;;7.42;100.00;99543.31;5063224;28;20089;-57
2021/12/24 07:37:32;;;;;;;33.20;21.33;;;;;;;7.46;100.00;99554.47;5067016;28;20135;-56
2021/12/24 07:39:58;;;;;;;41.75;20.95;;;;;;;7.46;100.00;99564.91;5066854;28;20023;-57
2021/12/24 07:42:25;;;;;;;27.15;20.27;;;;;;;7.45;100.00;99555.38;5064513;28;20059;-57
2021/12/24 07:44:51;;;;;;;38.20;22.70;;;;;;;7.30;100.00;99524.81;5065805;28;20074;-57
2021/12/24 07:47:27;;;;;;;41.30;21.17;;;;;;;7.45;100.00;99560.59;5046778;28;20028;-58
2021/12/24 07:50:00;;;;;;;39.25;18.83;;;;;;;7.45;100.00;99557.97;5066225;28;20035;-58
2021/12/24 07:52:25;;;;;;;35.97;19.13;;;;;;;7.17;100.00;99504.50;5066569;28;20471;-58
2021/12/24 07:54:54;;;;;;;37.17;21.15;;;;;;;7.30;100.00;99532.66;5059139;28;20081;-58
2021/12/24 07:57:20;;;;;;;35.17;19.70;;;;;;;7.47;100.00;99549.13;5054826;28;20027;-58
2021/12/24 07:59:45;;;;;;;29.75;18.63;;;;;;;7.46;100.00;99547.47;5061208;28;20031;-58
2021/12/24 08:02:16;;;;;;;33.20;19.33;;;;;;;7.46;100.00;99542.25;5045693;28;20035;-58
2021/12/24 08:04:44;;;;;;;40.60;20.58;;;;;;;7.49;100.00;99554.28;5045763;28;20074;-57
2021/12/24 08:07:09;;;;;;;30.92;17.38;;;;;;;7.48;100.00;99556.06;5045555;28;20116;-58
2021/12/24 08:09:37;;;;;;;31.05;17.35;;;;;;;7.51;100.00;99570.72;5046181;28;20024;-58
2021/12/24 08:12:07;;;;;;;35.45;18.23;;;;;;;7.50;100.00;99554.19;5045843;28;20139;-58
2021/12/24 08:14:32;;;;;;;39.60;18.00;;;;;;;7.50;100.00;99567.28;5045988;28;20562;-58
2021/12/24 08:16:58;;;;;;;32.00;16.77;;;;;;;7.52;100.00;99554.13;5045386;28;20080;-58
2021/12/24 08:19:23;;;;;;;30.15;17.70;;;;;;;7.53;100.00;99548.84;5045662;28;21054;-58
2021/12/24 08:21:49;;;;;;;33.55;17.95;;;;;;;7.53;100.00;99550.59;5045810;28;20032;-58
2021/12/24 08:24:15;;;;;;;32.42;17.17;;;;;;;7.51;100.00;99539.38;5054481;28;20048;-58
2021/12/24 08:26:41;;;;;;;22.15;15.40;;;;;;;7.53;100.00;99538.38;5065888;28;20089;-58
2021/12/24 08:29:06;;;;;;;33.22;15.75;;;;;;;7.54;100.00;99539.22;5066540;28;20036;-58
2021/12/24 08:31:32;;;;;;;20.55;15.15;;;;;;;7.54;100.00;99539.22;5067538;28;20915;-58
2021/12/24 08:33:58;;;;;;;28.30;17.67;;;;;;;7.50;100.00;99532.47;5047759;28;20931;-58
2021/12/24 08:36:23;;;;;;;25.23;15.48;;;;;;;7.55;100.00;99535.69;5053795;28;20927;-57
2021/12/24 08:38:48;;;;;;;29.35;16.88;;;;;;;7.57;100.00;99539.06;5049823;28;20789;-57
2021/12/24 08:41:14;;;;;;;24.95;16.42;;;;;;;7.57;100.00;99539.91;5031850;28;20059;-58
2021/12/24 08:43:39;;;;;;;26.80;16.10;;;;;;;7.58;100.00;99540.75;5048129;28;20027;-58
2021/12/24 08:46:05;;;;;;;29.65;14.85;;;;;;;7.57;100.00;99528.63;5050122;28;20031;-58
2021/12/24 08:48:30;;;;;;;25.65;16.00;;;;;;;7.45;100.00;99503.09;5050098;28;20024;-58
2021/12/24 08:50:55;;;;;;;24.00;14.93;;;;;;;7.59;100.00;99532.00;5059274;28;20103;-58
2021/12/24 08:53:23;;;;;;;31.08;17.23;;;;;;;7.59;100.00;99529.38;5066854;28;20083;-58
2021/12/24 08:55:48;;;;;;;24.45;15.05;;;;;;;7.59;100.00;99532.00;5051104;28;20082;-58
2021/12/24 08:58:14;;;;;;;34.53;15.55;;;;;;;7.58;100.00;99531.13;5049895;28;20890;-58
2021/12/24 09:00:39;;;;;;;26.42;16.20;;;;;;;7.59;100.00;99530.22;5049407;28;20135;-58
2021/12/24 09:03:05;;;;;;;40.95;16.08;;;;;;;7.58;100.00;99536.38;5047555;28;20043;-58
2021/12/24 09:05:30;;;;;;;28.35;15.63;;;;;;;7.57;100.00;99528.63;5048887;28;20028;-58
2021/12/24 09:07:57;;;;;;;35.30;16.55;;;;;;;7.59;100.00;99529.38;5050604;28;20036;-58
2021/12/24 09:10:22;;;;;;;28.17;16.38;;;;;;;7.59;100.00;99524.16;5031281;28;20032;-58
2021/12/24 09:12:48;;;;;;;28.27;14.25;;;;;;;7.61;100.00;99517.06;5048892;28;20924;-58
2021/12/24 09:15:16;;;;;;;27.70;15.60;;;;;;;7.64;100.00;99519.50;5048698;28;20945;-58
2021/12/24 09:17:46;;;;;;;23.65;15.27;;;;;;;7.66;100.00;99523.75;5049882;28;20077;-58
2021/12/24 09:20:26;;;;;;;25.75;15.48;;;;;;;7.68;100.00;99515.81;5048347;28;20101;-58
2021/12/24 09:22:54;;;;;;;22.60;14.48;;;;;;;7.69;100.00;99507.91;5050085;28;20862;-58
2021/12/24 09:25:22;;;;;;;24.27;14.95;;;;;;;7.73;100.00;99519.03;5050715;28;20035;-58
2021/12/24 09:27:47;;;;;;;26.02;15.70;;;;;;;7.74;100.00;99517.28;5049675;28;20032;-58
2021/12/24 09:30:13;;;;;;;26.45;15.20;;;;;;;7.75;100.00;99522.41;5049171;28;20864;-58
2021/12/24 09:32:38;;;;;;;20.67;14.05;;;;;;;7.77;100.00;99520.59;5049655;28;20117;-58
2021/12/24 09:35:05;;;;;;;31.90;14.27;;;;;;;7.78;100.00;99522.25;5028504;28;20040;-58
2021/12/24 09:37:30;;;;;;;28.35;15.70;;;;;;;7.81;100.00;99522.09;5047878;28;20032;-58
2021/12/24 09:39:55;;;;;;;30.95;15.65;;;;;;;7.91;100.00;99518.06;5047967;28;20068;-58
2021/12/24 09:42:23;;;;;;;21.00;13.15;;;;;;;7.96;100.00;99516.06;5048330;28;20131;-58
2021/12/24 09:44:49;;;;;;;22.40;14.43;;;;;;;8.00;100.00;99512.34;5045882;28;20931;-58
2021/12/24 09:47:14;;;;;;;32.17;14.50;;;;;;;8.04;100.00;99513.84;5046468;28;20023;-58
2021/12/24 09:49:39;;;;;;;30.42;15.63;;;;;;;8.00;100.00;99512.34;5047371;28;20030;-58
2021/12/24 09:52:07;;;;;;;25.55;15.15;;;;;;;8.08;100.00;99509.28;5047082;28;20028;-58
2021/12/24 09:54:32;;;;;;;38.97;18.75;;;;;;;8.11;100.00;99509.97;5046554;28;20851;-58
2021/12/24 09:56:58;;;;;;;26.02;14.70;;;;;;;8.12;100.00;99511.66;5046124;28;20135;-58
2021/12/24 09:59:24;;;;;;;26.05;15.50;;;;;;;8.15;100.00;99524.59;5047027;28;20871;-58
2021/12/24 10:01:58;;;;;;;52.50;29.20;;;;;;;8.17;100.00;99503.59;5045923;28;20036;-58
2021/12/24 10:04:27;;;;;;;32.55;20.80;;;;;;;8.19;100.00;99497.31;5048526;28;20246;-58
2021/12/24 10:07:03;;;;;;;26.75;16.48;;;;;;;8.19;100.00;99494.72;5047088;28;20922;-58
2021/12/24 10:09:29;;;;;;;27.23;16.85;;;;;;;8.17;100.00;99487.88;5047339;28;20028;-58
2021/12/24 10:11:56;;;;;;;23.40;14.23;;;;;;;8.15;100.00;99489.72;5048006;28;20056;-58
2021/12/24 10:14:38;;;;;;;21.90;14.27;;;;;;;8.18;100.00;99495.63;5051894;28;20075;-58
2021/12/24 10:17:05;;;;;;;20.20;13.63;;;;;;;8.19;100.00;99502.56;5046531;28;20032;-58
2021/12/24 10:19:48;;;;;;;20.73;13.38;;;;;;;8.14;100.00;99509.00;5046701;28;20039;-58
2021/12/24 10:22:14;;;;;;;23.60;13.05;;;;;;;8.12;100.00;99513.44;5046538;28;20032;-58
2021/12/24 10:24:40;;;;;;;24.02;13.30;;;;;;;8.11;100.00;99515.22;5055867;28;20155;-58
2021/12/24 10:27:06;;;;;;;24.10;12.90;;;;;;;7.88;100.00;99470.28;5045881;28;20036;-58
2021/12/24 10:29:39;;;;;;;21.85;12.98;;;;;;;7.92;100.00;99471.81;5051352;28;20043;-58
2021/12/24 10:32:15;;;;;;;18.38;11.60;;;;;;;8.09;100.00;99506.59;5057257;28;20038;-58
2021/12/24 10:34:42;;;;;;;19.85;11.27;;;;;;;8.11;100.00;99514.38;5057289;28;20028;-58
2021/12/24 10:37:13;;;;;;;29.67;13.50;;;;;;;8.09;100.00;99517.06;5060087;28;20030;-58
2021/12/24 10:39:47;;;;;;;25.75;11.85;;;;;;;8.11;100.00;99509.97;5050467;28;20596;-58
2021/12/24 10:42:16;;;;;;;24.98;12.18;;;;;;;8.17;100.00;99517.50;5053022;28;20032;-58
2021/12/24 10:44:44;;;;;;;17.48;11.75;;;;;;;8.23;100.00;99509.31;5059301;28;20030;-58
2021/12/24 10:47:22;;;;;;;24.60;12.70;;;;;;;8.28;100.00;99503.00;5042848;28;20100;-58
2021/12/24 10:55:26;;;;;;;28.73;12.48;;;;;;;8.44;100.00;99490.78;5066062;28;20764;-58
2021/12/24 10:57:52;;;;;;;23.52;11.27;;;;;;;8.55;100.00;99488.41;5066750;28;20245;-58
2021/12/24 11:00:26;;;;;;;18.08;10.55;;;;;;;8.67;100.00;99482.47;5065009;28;20134;-58
2021/12/24 11:02:56;;;;;;;17.08;10.93;;;;;;;8.72;100.00;99485.66;5066824;28;20035;-58
2021/12/24 11:05:34;;;;;;;15.40;10.07;;;;;;;8.75;100.00;99490.72;5066777;28;20135;-58
2021/12/24 11:08:02;;;;;;;18.77;10.25;;;;;;;8.74;100.00;99478.56;5068067;28;20038;-58
2021/12/24 11:10:33;;;;;;;21.38;10.48;;;;;;;8.69;100.00;99480.59;5067305;28;20020;-58
2021/12/24 11:13:07;;;;;;;18.17;10.63;;;;;;;8.71;100.00;99469.13;5051870;28;20028;-58
2021/12/24 11:15:34;;;;;;;21.35;10.00;;;;;;;8.71;100.00;99478.75;5047006;28;20147;-58
2021/12/24 11:18:14;;;;;;;18.48;10.38;;;;;;;8.69;100.00;99481.44;5046535;28;20031;-58
2021/12/24 11:20:39;;;;;;;20.27;10.05;;;;;;;8.55;100.00;99467.47;5047360;28;20024;-57
2021/12/24 11:23:16;;;;;;;28.17;10.70;;;;;;;8.61;100.00;99477.56;5046015;28;20039;-58
2021/12/24 11:26:05;;;;;;;26.70;10.52;;;;;;;8.53;100.00;99471.91;5046939;28;21007;-58
2021/12/24 11:28:32;;;;;;;23.95;10.75;;;;;;;8.40;100.00;99455.22;5046573;28;20039;-58
2021/12/24 11:31:00;;;;;;;16.08;10.27;;;;;;;8.57;100.00;99486.53;5031570;28;20910;-58
2021/12/24 11:33:31;;;;;;;29.90;11.43;;;;;;;8.53;100.00;99466.69;5054964;28;20537;-58
2021/12/24 11:35:57;;;;;;;18.00;11.52;;;;;;;8.54;100.00;99478.84;5046949;28;20017;-58
2021/12/24 11:38:25;;;;;;;22.50;12.02;;;;;;;8.63;100.00;99481.78;5047278;28;20902;-58
2021/12/24 11:40:52;;;;;;;17.10;10.85;;;;;;;8.64;100.00;99486.09;5054239;28;20024;-58
2021/12/24 11:43:20;;;;;;;19.00;12.32;;;;;;;8.61;100.00;99477.56;5065321;28;20884;-58
2021/12/24 11:45:45;;;;;;;20.20;9.48;;;;;;;8.57;100.00;99478.69;5067502;28;20020;-58
2021/12/24 11:48:11;;;;;;;19.08;13.80;;;;;;;8.57;100.00;99465.59;5066365;28;20130;-58
2021/12/24 11:50:36;;;;;;;25.15;16.90;;;;;;;8.58;100.00;99470.72;5067753;28;20064;-58
2021/12/24 11:53:06;;;;;;;28.73;13.40;;;;;;;8.58;100.00;99469.91;5071728;28;20028;-57
2021/12/24 11:55:34;;;;;;;19.63;11.13;;;;;;;8.62;100.00;99468.78;5049566;28;20872;-58
2021/12/24 11:58:04;;;;;;;20.05;10.85;;;;;;;8.58;100.00;99456.81;5065668;28;20127;-58
2021/12/24 12:00:34;;;;;;;15.50;9.68;;;;;;;8.58;100.00;99468.09;5064852;28;20028;-58
2021/12/24 12:03:00;;;;;;;17.25;10.25;;;;;;;8.56;100.00;99469.13;5064443;28;20086;-58
2021/12/24 12:05:35;;;;;;;19.20;10.40;;;;;;;8.54;100.00;99476.22;5068877;28;20891;-58
2021/12/24 12:08:23;;;;;;;20.73;9.93;;;;;;;8.49;100.00;99467.78;5070089;28;21038;-58
2021/12/24 12:10:50;;;;;;;18.60;9.90;;;;;;;8.46;100.00;99467.97;5069667;28;20058;-57
2021/12/24 12:13:39;;;;;;;25.08;9.75;;;;;;;8.46;100.00;99475.81;5070193;28;20134;-57
2021/12/24 12:16:05;;;;;;;18.70;10.52;;;;;;;8.44;100.00;99477.69;5070470;28;20032;-58
2021/12/24 12:18:33;;;;;;;19.85;9.50;;;;;;;8.40;100.00;99476.16;5052747;28;20028;-57
2021/12/24 12:21:10;;;;;;;15.45;9.10;;;;;;;8.42;100.00;99477.75;5069517;28;20036;-57
2021/12/24 12:26:44;;;;;;;24.95;9.73;;;;;;;8.37;100.00;99469.34;5013546;28;20044;-57
2021/12/24 12:29:27;;;;;;;20.52;10.60;;;;;;;8.38;100.00;99470.19;5062259;28;20036;-58
2021/12/24 12:31:56;;;;;;;21.98;9.52;;;;;;;8.43;100.00;99468.97;5048994;28;20964;-57
2021/12/24 12:34:38;;;;;;;16.23;9.27;;;;;;;8.43;100.00;99474.22;5032902;28;20096;-58
2021/12/24 12:37:21;;;;;;;20.85;9.63;;;;;;;8.39;100.00;99466.63;5058924;28;20036;-58
2021/12/24 12:40:06;;;;;;;14.43;9.27;;;;;;;8.39;100.00;99464.00;5063648;28;20036;-58
2021/12/24 12:42:54;;;;;;;17.25;9.60;;;;;;;8.38;100.00;99454.47;5067769;28;20032;-61
2021/12/24 12:45:42;;;;;;;17.88;10.02;;;;;;;8.38;100.00;99450.06;5066580;28;20139;-58
2021/12/24 12:48:13;;;;;;;19.98;10.75;;;;;;;8.41;100.00;99446.44;5051369;28;20090;-58
2021/12/24 12:50:44;;;;;;;16.95;9.77;;;;;;;8.40;100.00;99450.00;5049249;28;20078;-57
2021/12/24 12:53:31;;;;;;;21.27;9.23;;;;;;;8.41;100.00;99446.44;5047606;28;20036;-57
2021/12/24 12:56:17;;;;;;;16.60;9.38;;;;;;;8.45;100.00;99443.56;5079449;28;20028;-58
2021/12/24 12:58:48;;;;;;;17.00;9.15;;;;;;;8.49;100.00;99452.06;5080828;28;20379;-58
2021/12/24 13:01:19;;;;;;;15.75;8.77;;;;;;;8.53;100.00;99449.22;5080616;28;20140;-58
2021/12/24 13:03:56;;;;;;;19.50;10.13;;;;;;;8.59;100.00;99442.75;5082418;28;20032;-59